Jsp Porto — CQER — position and weather

sailwx.info

Track history (hours):
 
Tides and Currents Weather Stations Pressure Air Temp Water Temp Dewpoint Dewpoint Depression Visibility Wind Speed Wind Dir Waves Ship Positions

Jsp Porto

Last reported at 2018-Jun-22 17:15 UTC. Time now 2018-Jun-22 20:20 UTC.
Position N 38°55' E 000°53'.

Length 131 m; draft 6.4 m.

Type: Cargo ship. MMSI: 255805695.

Date/timePositionNaut miles runAvg speedWind from/ knotsBaromVisibWave heightAir tempDewpointWater temp
2018-Jun-22 17:15N 38°55' E 000°53'2211.2
2018-Jun-22 15:17N 38°33' E 000°50'2511.1
2018-Jun-22 13:01N 38°12' E 000°32'111.1
2018-Jun-22 12:53N 38°11' E 000°31'411.1
2018-Jun-22 12:30N 38°07' E 000°28'611.1
2018-Jun-22 11:57N 38°02' E 000°23'510.9
2018-Jun-22 11:29N 37°58' E 000°20'510.8
2018-Jun-22 11:00N 37°54' E 000°16'710.5
2018-Jun-22 10:19N 37°48' E 000°11'510.7
2018-Jun-22 09:50N 37°44' E 000°08'410.8
2018-Jun-22 09:30N 37°41' E 000°05'510.7
2018-Jun-22 08:59N 37°36' E 000°01'510.7
2018-Jun-22 08:30N 37°32' W 000°02'510.4
2018-Jun-22 08:00N 37°27' W 000°06'5 9.9
2018-Jun-22 07:30N 37°23' W 000°10'5 9.9
2018-Jun-22 07:00N 37°20' W 000°14'510.2
2018-Jun-22 06:30N 37°17' W 000°19'510.1
2018-Jun-22 06:00N 37°14' W 000°24'510.0
2018-Jun-22 05:28N 37°11' W 000°30'510.1
2018-Jun-22 04:59N 37°08' W 000°35'510.1
2018-Jun-22 04:28N 37°05' W 000°41'510.0
2018-Jun-22 04:00N 37°03' W 000°45'5 9.8
2018-Jun-22 03:29N 37°01' W 000°51'510.1
2018-Jun-22 03:00N 36°58' W 000°56'7 9.8
2018-Jun-22 02:14N 36°54' W 001°04'2 9.7
2018-Jun-22 02:00N 36°53' W 001°07'510.0
2018-Jun-22 01:29N 36°50' W 001°12'  
Track history (hours):
 
Tides and Currents Weather Stations Pressure Air Temp Water Temp Dewpoint Dewpoint Depression Visibility Wind Speed Wind Dir Waves Ship Positions

Jsp Porto

Last reported at 2018-Jun-22 17:15 UTC. Time now 2018-Jun-22 20:20 UTC.
Position N 38°55' E 000°53'.

Length 131 m; draft 6.4 m.

Type: Cargo ship. MMSI: 255805695.

Date/timePositionNaut miles runAvg speedWind from/ knotsBaromVisibWave heightAir tempDewpointWater temp
2018-Jun-22 17:15N 38°55' E 000°53'2211.2
2018-Jun-22 15:17N 38°33' E 000°50'2511.1
2018-Jun-22 13:01N 38°12' E 000°32'111.1
2018-Jun-22 12:53N 38°11' E 000°31'411.1
2018-Jun-22 12:30N 38°07' E 000°28'611.1
2018-Jun-22 11:57N 38°02' E 000°23'510.9
2018-Jun-22 11:29N 37°58' E 000°20'510.8
2018-Jun-22 11:00N 37°54' E 000°16'710.5
2018-Jun-22 10:19N 37°48' E 000°11'510.7
2018-Jun-22 09:50N 37°44' E 000°08'410.8
2018-Jun-22 09:30N 37°41' E 000°05'510.7
2018-Jun-22 08:59N 37°36' E 000°01'510.7
2018-Jun-22 08:30N 37°32' W 000°02'510.4
2018-Jun-22 08:00N 37°27' W 000°06'5 9.9
2018-Jun-22 07:30N 37°23' W 000°10'5 9.9
2018-Jun-22 07:00N 37°20' W 000°14'510.2
2018-Jun-22 06:30N 37°17' W 000°19'510.1
2018-Jun-22 06:00N 37°14' W 000°24'510.0
2018-Jun-22 05:28N 37°11' W 000°30'510.1
2018-Jun-22 04:59N 37°08' W 000°35'510.1
2018-Jun-22 04:28N 37°05' W 000°41'510.0
2018-Jun-22 04:00N 37°03' W 000°45'5 9.8
2018-Jun-22 03:29N 37°01' W 000°51'510.1
2018-Jun-22 03:00N 36°58' W 000°56'7 9.8
2018-Jun-22 02:14N 36°54' W 001°04'2 9.7
2018-Jun-22 02:00N 36°53' W 001°07'510.0
2018-Jun-22 01:29N 36°50' W 001°12'  

Dump ship's entire track history